Time;durP1;ratioP1;P1;durP2;ratioP2;P2;SDS_P1;SDS_P2;PMS_P1;PMS_P2;Temp;Humidity;BMP_temperature;BMP_pressure;BME280_temperature;BME280_humidity;BME280_pressure;Samples;Min_cycle;Max_cycle;Signal;HPM_P1;HPM_P2
2024/04/15 00:01:09;;;;;;;0.88;0.30;;;10.60;71.40;;;;;;4985598;28;20141;-79
2024/04/15 00:03:35;;;;;;;0.20;0.20;;;10.60;71.50;;;;;;4990185;28;20043;-80
2024/04/15 00:06:01;;;;;;;0.20;0.20;;;10.60;71.60;;;;;;4973242;28;20027;-79
2024/04/15 00:08:26;;;;;;;0.40;0.20;;;10.60;71.70;;;;;;4976640;28;20042;-79
2024/04/15 00:10:52;;;;;;;0.90;0.30;;;10.50;71.70;;;;;;4957562;28;20068;-79
2024/04/15 00:13:18;;;;;;;0.43;0.30;;;10.60;71.80;;;;;;4975077;28;20066;-80
2024/04/15 00:15:54;;;;;;;0.20;0.20;;;10.60;71.90;;;;;;4970227;28;20597;-79
2024/04/15 00:18:20;;;;;;;0.20;0.20;;;10.50;72.00;;;;;;4967602;28;20061;-79
2024/04/15 00:20:46;;;;;;;1.10;0.30;;;10.50;72.10;;;;;;4952420;28;20095;-80
2024/04/15 00:23:12;;;;;;;0.38;0.25;;;10.40;72.10;;;;;;4948511;28;20054;-80
2024/04/15 00:25:37;;;;;;;0.30;0.30;;;10.40;72.20;;;;;;4970545;28;20046;-79
2024/04/15 00:28:03;;;;;;;0.52;0.30;;;10.40;72.20;;;;;;4967250;28;20049;-79
2024/04/15 00:30:29;;;;;;;0.20;0.20;;;10.50;72.40;;;;;;4947373;28;20464;-79
2024/04/15 00:32:55;;;;;;;0.40;0.40;;;10.40;72.40;;;;;;4981580;28;20038;-80
2024/04/15 00:35:21;;;;;;;0.28;0.28;;;10.30;72.40;;;;;;4965223;28;20461;-80
2024/04/15 00:37:47;;;;;;;1.20;0.47;;;10.40;72.50;;;;;;4961364;28;20047;-80
2024/04/15 00:40:12;;;;;;;0.68;0.22;;;10.30;72.60;;;;;;4978362;28;20049;-79
2024/04/15 00:42:38;;;;;;;0.43;0.30;;;10.30;72.70;;;;;;4967902;28;20106;-79
2024/04/15 00:45:28;;;;;;;0.82;0.30;;;10.30;72.80;;;;;;4964209;28;20053;-79
2024/04/15 00:47:53;;;;;;;1.38;0.40;;;10.30;73.00;;;;;;4966777;28;20501;-79
2024/04/15 00:50:19;;;;;;;1.25;0.30;;;10.20;72.90;;;;;;4963162;28;20057;-79
2024/04/15 00:52:45;;;;;;;0.77;0.40;;;10.20;73.10;;;;;;4949817;28;20142;-79
2024/04/15 00:55:11;;;;;;;1.17;0.47;;;10.20;73.30;;;;;;4964894;28;20027;-79
2024/04/15 00:57:39;;;;;;;0.30;0.30;;;10.00;73.40;;;;;;4964234;28;20043;-79
2024/04/15 01:00:06;;;;;;;0.40;0.30;;;10.10;73.60;;;;;;4949581;28;20039;-79
2024/04/15 01:02:32;;;;;;;1.33;0.40;;;10.10;73.70;;;;;;4969248;28;20052;-77
2024/04/15 01:04:58;;;;;;;0.82;0.40;;;10.00;73.80;;;;;;4971547;28;20047;-78
2024/04/15 01:07:24;;;;;;;0.20;0.20;;;10.00;73.90;;;;;;4938894;28;20050;-77
2024/04/15 01:09:51;;;;;;;0.90;0.40;;;9.90;74.00;;;;;;4986407;28;20027;-78
2024/04/15 01:12:17;;;;;;;0.50;0.30;;;9.90;74.10;;;;;;4956272;28;20470;-78
2024/04/15 01:14:42;;;;;;;0.35;0.30;;;9.90;74.20;;;;;;4957173;28;20058;-78
2024/04/15 01:17:08;;;;;;;1.73;0.47;;;9.90;74.40;;;;;;4971904;28;20062;-78
2024/04/15 01:19:33;;;;;;;0.95;0.40;;;9.90;74.50;;;;;;4969522;28;20049;-77
2024/04/15 01:22:00;;;;;;;0.30;0.22;;;9.80;74.50;;;;;;4972182;28;20050;-78
2024/04/15 01:24:26;;;;;;;0.20;0.20;;;9.80;74.60;;;;;;4957282;28;20043;-78
2024/04/15 01:26:51;;;;;;;0.73;0.40;;;9.80;74.70;;;;;;4970150;28;20054;-79
2024/04/15 01:29:17;;;;;;;0.73;0.47;;;9.80;74.70;;;;;;4958323;28;20051;-79
2024/04/15 01:31:43;;;;;;;0.68;0.30;;;9.80;74.80;;;;;;4970843;28;20484;-78
2024/04/15 01:34:08;;;;;;;0.43;0.43;;;9.80;74.90;;;;;;4990834;28;20086;-78
2024/04/15 01:36:34;;;;;;;1.80;0.88;;;9.80;75.00;;;;;;4966667;28;20065;-79
2024/04/15 01:38:59;;;;;;;0.35;0.35;;;9.70;75.00;;;;;;4953035;28;20054;-78
2024/04/15 01:41:25;;;;;;;0.88;0.45;;;9.70;75.00;;;;;;4973080;28;20077;-77
2024/04/15 01:43:51;;;;;;;0.38;0.28;;;9.70;75.20;;;;;;4988798;28;20050;-78
2024/04/15 01:46:17;;;;;;;1.50;0.40;;;9.70;75.20;;;;;;4990420;28;20055;-78
2024/04/15 01:48:43;;;;;;;0.70;0.45;;;9.70;75.30;;;;;;4989471;28;20035;-78
2024/04/15 01:51:08;;;;;;;1.10;0.40;;;9.70;75.30;;;;;;4968172;28;20093;-78
2024/04/15 01:53:34;;;;;;;0.55;0.43;;;9.70;75.30;;;;;;4942475;28;20031;-78
2024/04/15 01:56:00;;;;;;;0.65;0.40;;;9.80;75.50;;;;;;4978638;28;20046;-78
2024/04/15 01:58:25;;;;;;;0.60;0.40;;;9.70;75.40;;;;;;4975062;28;20031;-78
2024/04/15 02:00:51;;;;;;;0.70;0.50;;;9.70;75.50;;;;;;4941407;28;20043;-78
2024/04/15 02:03:17;;;;;;;1.15;0.40;;;9.70;75.50;;;;;;4974964;28;20031;-78
2024/04/15 02:05:42;;;;;;;0.82;0.50;;;9.70;75.60;;;;;;4955873;28;20127;-78
2024/04/15 02:08:08;;;;;;;0.40;0.40;;;9.70;75.60;;;;;;4958372;28;20050;-78
2024/04/15 02:10:34;;;;;;;0.60;0.30;;;9.60;75.60;;;;;;4940069;28;20058;-79
2024/04/15 02:12:59;;;;;;;0.55;0.52;;;9.70;75.70;;;;;;4956681;28;20512;-78
2024/04/15 02:15:25;;;;;;;0.77;0.43;;;9.70;75.70;;;;;;4973147;28;20050;-78
2024/04/15 02:17:51;;;;;;;0.50;0.40;;;9.70;75.80;;;;;;4956737;28;20046;-78
2024/04/15 02:20:16;;;;;;;0.63;0.45;;;9.60;75.80;;;;;;4956988;28;20078;-78
2024/04/15 02:22:42;;;;;;;0.50;0.50;;;9.70;75.80;;;;;;4973881;28;20073;-79
2024/04/15 02:25:08;;;;;;;1.60;0.50;;;9.70;75.90;;;;;;4972591;28;20058;-78
2024/04/15 02:27:35;;;;;;;1.65;0.52;;;9.70;75.90;;;;;;4942605;28;20155;-79
2024/04/15 02:30:02;;;;;;;0.98;0.50;;;9.60;75.90;;;;;;4977402;28;20039;-79
2024/04/15 02:32:28;;;;;;;0.40;0.40;;;9.70;76.00;;;;;;4975739;28;20035;-78
2024/04/15 02:34:53;;;;;;;0.55;0.40;;;9.70;76.00;;;;;;4958413;28;20106;-78
2024/04/15 02:37:19;;;;;;;0.80;0.50;;;9.60;76.10;;;;;;4941063;28;20445;-78
2024/04/15 02:39:46;;;;;;;2.17;0.68;;;9.60;76.10;;;;;;4957621;28;20169;-78
2024/04/15 02:42:11;;;;;;;1.15;0.60;;;9.60;76.20;;;;;;4940330;28;20070;-78
2024/04/15 02:44:37;;;;;;;1.88;0.75;;;9.60;76.20;;;;;;4955941;28;20504;-78
2024/04/15 02:47:03;;;;;;;1.50;0.70;;;9.60;76.20;;;;;;4955849;28;20126;-79
2024/04/15 02:49:29;;;;;;;0.43;0.40;;;9.60;76.20;;;;;;4973776;28;20039;-79
2024/04/15 02:51:55;;;;;;;0.80;0.68;;;9.50;76.20;;;;;;4974426;28;20038;-78
2024/04/15 02:54:21;;;;;;;0.80;0.60;;;9.50;76.30;;;;;;4942747;28;20087;-78
2024/04/15 02:56:46;;;;;;;0.70;0.55;;;9.50;76.30;;;;;;4924829;28;20035;-78
2024/04/15 02:59:12;;;;;;;0.77;0.60;;;9.60;76.50;;;;;;4958053;28;20050;-78
2024/04/15 03:01:38;;;;;;;1.30;0.57;;;9.60;76.50;;;;;;4940241;28;20101;-79
2024/04/15 03:04:04;;;;;;;0.40;0.40;;;9.50;76.50;;;;;;4940152;28;20401;-78
2024/04/15 03:06:30;;;;;;;0.63;0.60;;;9.50;76.50;;;;;;4976220;28;20063;-78
2024/04/15 03:08:55;;;;;;;0.65;0.55;;;9.60;76.60;;;;;;4955417;28;20433;-78
2024/04/15 03:11:21;;;;;;;0.47;0.45;;;9.50;76.60;;;;;;4925141;28;20050;-78
2024/04/15 03:13:47;;;;;;;2.42;0.73;;;9.50;76.70;;;;;;4943298;28;20039;-78
2024/04/15 03:16:14;;;;;;;0.50;0.47;;;9.50;76.70;;;;;;4956540;28;20043;-79
2024/04/15 03:18:39;;;;;;;1.15;0.60;;;9.40;76.70;;;;;;4940135;28;20552;-78
2024/04/15 03:21:07;;;;;;;1.55;0.50;;;9.40;76.70;;;;;;4957423;28;20035;-78
2024/04/15 03:23:33;;;;;;;0.88;0.68;;;9.40;76.80;;;;;;4943081;28;20166;-78
2024/04/15 03:25:59;;;;;;;1.52;0.80;;;9.50;76.80;;;;;;4944914;28;20618;-78
2024/04/15 03:28:24;;;;;;;0.57;0.57;;;9.50;76.90;;;;;;4944161;28;20053;-78
2024/04/15 03:30:50;;;;;;;1.00;0.63;;;9.40;76.90;;;;;;4977575;28;20031;-78
2024/04/15 03:33:15;;;;;;;0.40;0.40;;;9.40;76.90;;;;;;4977329;28;20047;-79
2024/04/15 03:35:42;;;;;;;0.73;0.70;;;9.40;76.90;;;;;;4929961;28;20031;-78
2024/04/15 03:38:08;;;;;;;1.95;0.90;;;9.40;76.90;;;;;;4943227;28;20031;-78
2024/04/15 03:40:34;;;;;;;1.65;0.93;;;9.30;77.00;;;;;;4960641;28;20042;-78
2024/04/15 03:43:02;;;;;;;1.40;0.70;;;9.30;77.10;;;;;;4960237;28;20089;-78
2024/04/15 03:45:28;;;;;;;0.93;0.65;;;9.30;77.20;;;;;;4961396;28;20041;-78
2024/04/15 03:47:54;;;;;;;0.95;0.63;;;9.30;77.40;;;;;;4960819;28;20516;-78
2024/04/15 03:50:23;;;;;;;1.42;0.75;;;9.20;77.40;;;;;;4945963;28;20038;-78
2024/04/15 03:52:49;;;;;;;1.08;0.60;;;9.20;77.50;;;;;;4961727;28;20876;-79
2024/04/15 03:55:16;;;;;;;0.70;0.50;;;9.10;77.60;;;;;;4943275;28;20050;-79
2024/04/15 03:57:41;;;;;;;1.13;0.70;;;9.20;77.80;;;;;;4945808;28;20047;-78
2024/04/15 04:00:08;;;;;;;0.90;0.60;;;9.10;77.70;;;;;;4961003;28;20126;-78
2024/04/15 04:02:33;;;;;;;0.65;0.57;;;9.10;77.90;;;;;;4944570;28;20050;-78
2024/04/15 04:04:59;;;;;;;1.38;0.77;;;9.10;77.90;;;;;;4944676;28;20046;-78
2024/04/15 04:07:25;;;;;;;1.50;0.57;;;9.10;77.90;;;;;;4960499;28;20047;-78
2024/04/15 04:09:51;;;;;;;2.13;0.70;;;9.00;77.90;;;;;;4980360;28;20531;-78
2024/04/15 04:12:17;;;;;;;0.50;0.50;;;9.00;78.00;;;;;;4944823;28;20078;-78
2024/04/15 04:14:43;;;;;;;1.00;0.52;;;9.00;78.00;;;;;;4977555;28;20043;-78
2024/04/15 04:17:09;;;;;;;0.75;0.70;;;9.00;78.10;;;;;;4945732;28;20042;-78
2024/04/15 04:19:35;;;;;;;0.60;0.50;;;8.90;78.10;;;;;;4949954;28;20050;-78
2024/04/15 04:22:01;;;;;;;1.13;0.60;;;8.90;78.10;;;;;;4962725;28;20039;-79
2024/04/15 04:24:28;;;;;;;0.90;0.85;;;8.80;78.10;;;;;;4961172;28;20113;-79
2024/04/15 04:26:53;;;;;;;0.50;0.50;;;8.80;78.10;;;;;;4928351;28;20043;-79
2024/04/15 04:29:19;;;;;;;1.35;0.60;;;8.90;78.20;;;;;;4959048;28;20043;-78
2024/04/15 04:31:44;;;;;;;1.13;0.45;;;8.80;78.20;;;;;;4959687;28;20035;-79
2024/04/15 04:34:10;;;;;;;1.08;0.68;;;8.80;78.20;;;;;;4981206;28;20466;-79
2024/04/15 04:36:36;;;;;;;0.73;0.70;;;8.80;78.30;;;;;;4947290;28;20043;-78
2024/04/15 04:39:02;;;;;;;0.60;0.47;;;8.80;78.30;;;;;;4962968;28;20045;-79
2024/04/15 04:41:28;;;;;;;1.38;0.65;;;8.80;78.40;;;;;;4964357;28;20066;-79
2024/04/15 04:43:54;;;;;;;1.67;0.57;;;8.80;78.40;;;;;;4966127;28;20043;-79
2024/04/15 04:46:20;;;;;;;0.75;0.45;;;8.80;78.40;;;;;;4947582;28;20089;-79
2024/04/15 04:48:46;;;;;;;1.60;0.70;;;8.70;78.40;;;;;;4980852;28;20129;-79
2024/04/15 04:51:12;;;;;;;0.77;0.60;;;8.70;78.50;;;;;;4946442;28;20043;-77
2024/04/15 04:53:40;;;;;;;1.17;0.60;;;8.70;78.60;;;;;;4957642;28;20051;-79
2024/04/15 04:56:10;;;;;;;1.45;0.60;;;8.70;78.60;;;;;;4940765;28;20043;-79
2024/04/15 04:58:37;;;;;;;1.17;0.73;;;8.70;78.70;;;;;;4924802;28;20050;-79
2024/04/15 05:01:17;;;;;;;1.58;0.68;;;8.70;79.40;;;;;;4940764;28;20050;-79
2024/04/15 05:03:50;;;;;;;1.30;0.68;;;8.70;78.70;;;;;;4973961;28;20446;-79
2024/04/15 05:06:18;;;;;;;0.65;0.60;;;8.70;78.70;;;;;;4956609;28;20891;-79
2024/04/15 05:08:45;;;;;;;2.75;0.80;;;8.80;78.70;;;;;;4957370;28;20046;-78
2024/04/15 05:11:11;;;;;;;0.88;0.60;;;8.70;78.60;;;;;;4940729;28;20043;-79
2024/04/15 05:13:37;;;;;;;0.80;0.50;;;8.70;78.60;;;;;;4940822;28;20062;-80
2024/04/15 05:16:05;;;;;;;1.27;0.55;;;8.70;78.60;;;;;;4956552;28;20086;-79
2024/04/15 05:18:32;;;;;;;2.88;0.60;;;8.60;78.50;;;;;;4956949;28;20035;-76
2024/04/15 05:21:00;;;;;;;1.00;0.65;;;8.70;78.60;;;;;;4956614;28;20065;-78
2024/04/15 05:23:26;;;;;;;0.60;0.60;;;8.70;78.60;;;;;;4940732;28;20093;-79
2024/04/15 05:25:53;;;;;;;0.50;0.40;;;8.70;78.70;;;;;;4956516;28;20118;-78
2024/04/15 05:28:19;;;;;;;0.95;0.55;;;8.70;78.80;;;;;;4940455;28;20074;-78
2024/04/15 05:30:45;;;;;;;0.85;0.70;;;8.60;78.80;;;;;;4940288;28;20031;-78
2024/04/15 05:33:10;;;;;;;0.68;0.60;;;8.60;78.90;;;;;;4940437;28;20043;-78
2024/04/15 05:35:36;;;;;;;0.73;0.52;;;8.60;79.00;;;;;;4940376;28;20050;-78
2024/04/15 05:38:02;;;;;;;0.60;0.47;;;8.60;79.00;;;;;;4940221;28;20027;-79
2024/04/15 05:40:27;;;;;;;0.80;0.60;;;8.70;79.00;;;;;;4924545;28;20042;-79
2024/04/15 05:42:53;;;;;;;2.13;0.50;;;8.70;79.00;;;;;;4939838;28;20432;-76
2024/04/15 05:45:19;;;;;;;1.20;0.70;;;8.70;78.90;;;;;;4955123;28;20401;-78
2024/04/15 05:47:44;;;;;;;0.80;0.65;;;8.70;78.90;;;;;;4973113;28;21268;-78
2024/04/15 05:50:10;;;;;;;0.65;0.50;;;8.70;78.90;;;;;;4973718;28;20077;-78
2024/04/15 05:52:35;;;;;;;0.90;0.45;;;8.70;79.00;;;;;;4974000;28;20081;-79
2024/04/15 05:55:01;;;;;;;1.52;0.60;;;8.70;79.00;;;;;;4973442;28;20062;-78
2024/04/15 05:57:27;;;;;;;2.05;0.77;;;8.70;79.10;;;;;;4956071;28;20038;-78
2024/04/15 05:59:53;;;;;;;0.50;0.50;;;8.70;79.00;;;;;;4924172;28;20041;-78
2024/04/15 06:02:18;;;;;;;1.48;0.65;;;8.70;79.10;;;;;;4956702;28;20041;-79
2024/04/15 06:04:44;;;;;;;0.70;0.45;;;8.80;79.10;;;;;;4955766;28;20478;-78
2024/04/15 06:07:10;;;;;;;1.23;0.63;;;8.80;79.00;;;;;;4923897;28;20070;-79
2024/04/15 06:09:36;;;;;;;0.80;0.40;;;8.80;78.90;;;;;;4924392;28;20151;-78
2024/04/15 06:12:02;;;;;;;0.93;0.50;;;8.90;79.00;;;;;;4956257;28;20513;-78
2024/04/15 06:14:28;;;;;;;2.20;0.45;;;8.80;79.00;;;;;;4955711;28;20385;-78
2024/04/15 06:16:54;;;;;;;1.20;0.50;;;8.80;79.10;;;;;;4923819;28;20038;-78
2024/04/15 06:19:20;;;;;;;1.45;0.60;;;8.80;79.10;;;;;;4939912;28;20034;-79
2024/04/15 06:21:45;;;;;;;1.77;0.68;;;8.80;79.20;;;;;;4955390;28;20038;-79
2024/04/15 06:24:11;;;;;;;1.00;0.70;;;8.90;79.20;;;;;;4923640;28;20035;-79
2024/04/15 06:26:37;;;;;;;1.45;0.65;;;8.80;79.20;;;;;;4923453;28;20070;-78
2024/04/15 06:29:03;;;;;;;1.65;0.70;;;8.90;79.30;;;;;;4955463;28;20051;-79
2024/04/15 06:31:29;;;;;;;2.63;0.70;;;8.90;79.30;;;;;;4953357;28;20026;-79
2024/04/15 06:33:56;;;;;;;1.35;0.60;;;9.00;79.30;;;;;;4956124;28;20043;-79
2024/04/15 06:36:21;;;;;;;1.13;0.70;;;9.00;79.30;;;;;;4955455;28;20389;-74
2024/04/15 06:38:53;;;;;;;2.50;0.70;;;9.00;79.20;;;;;;4922961;28;20052;-75
2024/04/15 06:41:19;;;;;;;1.48;0.60;;;9.00;79.20;;;;;;4955383;28;20054;-75
2024/04/15 06:44:43;;;;;;;0.75;0.55;;;9.00;79.10;;;;;;4953511;28;20423;-76
2024/04/15 07:09:05;;;;;;;2.35;0.70;;;9.50;78.40;;;;;;4912257;29;20623;-77
2024/04/15 07:11:32;;;;;;;1.75;0.73;;;9.50;78.30;;;;;;4866240;29;20041;-76
2024/04/15 07:13:58;;;;;;;1.48;0.60;;;9.60;78.40;;;;;;4882000;29;20044;-76
2024/04/15 07:16:26;;;;;;;1.60;0.63;;;9.70;78.40;;;;;;4881128;29;20043;-77
2024/04/15 07:18:52;;;;;;;2.63;0.80;;;9.80;78.20;;;;;;4909772;28;20155;-76
2024/04/15 07:21:21;;;;;;;1.83;0.60;;;9.80;78.00;;;;;;4922860;28;20047;-76
2024/04/15 08:30:19;;;;;;;1.98;0.88;;;11.60;75.90;;;;;;4885579;29;20148;-74
2024/04/15 08:32:45;;;;;;;2.20;0.95;;;11.70;75.80;;;;;;4904145;29;20051;-75
2024/04/15 08:35:12;;;;;;;1.50;1.00;;;11.70;75.70;;;;;;4886782;29;20118;-76
2024/04/15 08:37:37;;;;;;;2.47;0.95;;;11.70;75.80;;;;;;4918284;29;20040;-76
2024/04/15 08:40:04;;;;;;;4.35;1.02;;;11.80;76.00;;;;;;4902556;29;20569;-75
2024/04/15 08:42:54;;;;;;;3.40;1.10;;;11.70;76.00;;;;;;4916187;29;20126;-75
2024/04/15 08:45:23;;;;;;;2.25;0.90;;;11.70;76.00;;;;;;4903158;29;20071;-77
2024/04/15 08:47:57;;;;;;;1.08;0.93;;;11.70;76.10;;;;;;4902673;29;20044;-76
2024/04/15 08:50:25;;;;;;;1.88;1.10;;;11.70;76.10;;;;;;4880024;29;20033;-76
2024/04/15 08:52:52;;;;;;;2.40;1.10;;;11.80;76.10;;;;;;4895739;29;20138;-77
2024/04/15 08:55:21;;;;;;;2.10;0.95;;;11.80;76.10;;;;;;4879907;29;20037;-76
2024/04/15 08:57:48;;;;;;;1.05;0.90;;;11.90;76.00;;;;;;4895708;29;20063;-75
2024/04/15 09:00:18;;;;;;;2.85;1.10;;;11.90;75.90;;;;;;4896064;29;20044;-75
2024/04/15 09:02:50;;;;;;;1.77;1.20;;;11.90;75.70;;;;;;4929520;29;20106;-75
2024/04/15 09:51:20;;;;;;;1.85;0.70;;;12.60;73.90;;;;;;4967155;28;20126;-75
2024/04/15 09:53:52;;;;;;;2.13;0.82;;;12.50;74.10;;;;;;4938481;28;20101;-76
2024/04/15 09:56:49;;;;;;;1.83;0.68;;;12.50;74.30;;;;;;4916328;29;20036;-75
2024/04/15 09:59:16;;;;;;;1.27;0.70;;;12.50;74.40;;;;;;4915222;29;20039;-76
2024/04/15 10:01:57;;;;;;;1.92;0.57;;;12.50;74.40;;;;;;4900713;29;20106;-76
2024/04/15 10:04:25;;;;;;;0.88;0.68;;;12.50;74.40;;;;;;4896375;29;20040;-74
2024/04/15 10:56:58;;;;;;;1.58;0.60;;;11.80;75.30;;;;;;4870902;29;20200;-74
2024/04/15 10:59:25;;;;;;;1.80;0.70;;;11.80;75.40;;;;;;4829845;29;20041;-75
2024/04/15 11:01:51;;;;;;;1.10;0.50;;;11.70;75.40;;;;;;4873452;29;20043;-75
2024/04/15 11:04:16;;;;;;;2.13;0.50;;;11.50;75.60;;;;;;4884917;29;20050;-74
2024/04/15 11:06:50;;;;;;;1.63;0.50;;;11.50;75.80;;;;;;4900143;29;20051;-76
2024/04/15 11:09:17;;;;;;;1.33;0.60;;;11.50;76.00;;;;;;4885606;29;20059;-74
2024/04/15 11:11:44;;;;;;;2.65;0.80;;;11.40;76.10;;;;;;4884384;29;20544;-74
2024/04/15 11:14:42;;;;;;;0.82;0.60;;;11.30;76.30;;;;;;4915004;29;20087;-77
2024/04/15 11:17:22;;;;;;;2.72;0.80;;;11.20;76.50;;;;;;4896532;29;20494;-76
2024/04/15 11:20:05;;;;;;;0.75;0.52;;;11.00;76.80;;;;;;4926364;29;20059;-74
2024/04/15 12:35:59;;;;;;;;;;;10.90;78.50;;;;;;4950491;29;20438;-75
2024/04/15 12:38:25;;;;;;;2.35;0.70;;;10.90;78.50;;;;;;4955483;29;19918;-75
2024/04/15 12:40:51;;;;;;;1.33;0.60;;;10.90;78.60;;;;;;4952263;29;20483;-74
2024/04/15 13:34:42;;;;;;;0.40;0.30;;;9.40;81.70;;;;;;4965835;28;20838;-75
2024/04/15 13:37:10;;;;;;;0.43;0.30;;;8.50;82.90;;;;;;4953423;28;20113;-75
2024/04/15 13:39:36;;;;;;;1.48;0.32;;;8.20;83.90;;;;;;4939961;28;20039;-75
2024/04/15 13:42:02;;;;;;;0.30;0.30;;;7.80;84.50;;;;;;4973085;28;20046;-76
2024/04/15 14:10:44;;;;;;;0.20;0.20;;;6.80;85.30;;;;;;4929798;29;20094;-75
2024/04/15 14:13:10;;;;;;;0.38;0.20;;;6.70;85.20;;;;;;4911938;29;20047;-75
2024/04/15 14:15:36;;;;;;;0.45;0.17;;;6.70;85.10;;;;;;4932304;29;20036;-76
2024/04/15 14:18:02;;;;;;;0.20;0.20;;;6.70;85.10;;;;;;4931630;29;20036;-76
2024/04/15 14:20:30;;;;;;;0.20;0.20;;;6.70;85.20;;;;;;4915891;29;20051;-76
2024/04/15 14:22:58;;;;;;;0.10;0.10;;;6.70;85.10;;;;;;4929821;29;20044;-76
2024/04/15 14:25:23;;;;;;;0.10;0.10;;;6.80;85.00;;;;;;4937682;28;20036;-75
2024/04/15 14:27:55;;;;;;;0.10;0.10;;;6.90;84.90;;;;;;4973035;28;20050;-75
2024/04/15 14:30:20;;;;;;;;;;;7.00;84.80;;;;;;4959865;28;20094;-75
2024/04/15 14:32:49;;;;;;;0.70;0.20;;;6.90;84.60;;;;;;4972193;28;19918;-75
2024/04/15 14:35:15;;;;;;;0.20;0.10;;;6.90;84.40;;;;;;4953707;28;20119;-75
2024/04/15 14:37:43;;;;;;;0.30;0.20;;;6.90;84.50;;;;;;4955248;28;20454;-75
2024/04/15 14:40:09;;;;;;;0.10;0.10;;;7.00;84.50;;;;;;4939267;28;20477;-75
2024/04/15 14:42:36;;;;;;;0.10;0.10;;;7.10;84.40;;;;;;4972185;28;20045;-74
2024/04/15 14:45:03;;;;;;;0.32;0.20;;;7.10;84.30;;;;;;4938895;28;20039;-75
2024/04/15 14:47:29;;;;;;;0.17;0.17;;;7.20;84.30;;;;;;4954965;28;20415;-74
2024/04/15 14:49:57;;;;;;;0.10;0.10;;;7.40;84.10;;;;;;4954815;28;20034;-75
2024/04/15 14:52:23;;;;;;;0.15;0.10;;;7.50;83.70;;;;;;4969962;28;20042;-75
2024/04/15 14:54:51;;;;;;;0.63;0.13;;;7.60;83.50;;;;;;4972046;28;20039;-77
2024/04/15 14:57:20;;;;;;;0.15;0.15;;;7.70;83.40;;;;;;4972147;28;20031;-75
2024/04/15 14:59:47;;;;;;;1.10;0.20;;;7.70;83.40;;;;;;4915416;29;20044;-74
2024/04/15 15:02:13;;;;;;;1.27;0.30;;;7.70;83.40;;;;;;4931434;29;20040;-75
2024/04/15 16:06:57;;;;;;;0.25;0.17;;;8.70;82.90;;;;;;4875699;29;20113;-75
2024/04/15 16:24:42;;;;;;;0.30;0.30;;;9.00;81.40;;;;;;4899322;29;20063;-77
2024/04/15 16:34:23;;;;;;;0.38;0.35;;;9.00;81.50;;;;;;4928476;29;20525;-77
2024/04/15 16:36:49;;;;;;;3.60;0.80;;;9.10;81.30;;;;;;4917706;29;20032;-78
2024/04/15 16:39:16;;;;;;;0.47;0.30;;;9.00;81.20;;;;;;4900953;29;20195;-78
2024/04/15 16:41:42;;;;;;;0.57;0.32;;;9.00;81.30;;;;;;4900693;29;20076;-79
2024/04/15 16:44:07;;;;;;;0.65;0.40;;;9.00;81.30;;;;;;4903423;29;20059;-78
2024/04/15 16:46:33;;;;;;;1.17;0.40;;;8.90;81.10;;;;;;4935533;29;20210;-78
2024/04/15 16:48:59;;;;;;;1.70;0.82;;;8.80;81.10;;;;;;4919159;29;20112;-77
2024/04/15 16:51:24;;;;;;;1.95;0.60;;;8.60;81.20;;;;;;4916844;29;20040;-75
2024/04/15 16:53:50;;;;;;;0.63;0.40;;;8.50;81.30;;;;;;4919529;29;20114;-76
2024/04/15 16:56:15;;;;;;;0.88;0.40;;;8.40;81.70;;;;;;4939242;29;20032;-76
2024/04/15 16:58:41;;;;;;;1.20;0.40;;;8.30;81.80;;;;;;4946693;28;20110;-77
2024/04/15 17:01:07;;;;;;;0.57;0.50;;;8.40;81.90;;;;;;4957398;28;20039;-76
2024/04/15 17:03:33;;;;;;;0.70;0.40;;;8.30;81.90;;;;;;4957687;28;20394;-77
2024/04/15 17:06:06;;;;;;;0.30;0.30;;;8.20;81.90;;;;;;4957675;28;20058;-77
2024/04/15 17:08:32;;;;;;;0.52;0.32;;;8.10;81.90;;;;;;4976941;28;20186;-78
2024/04/15 17:10:58;;;;;;;0.60;0.50;;;8.10;82.10;;;;;;4942409;28;20056;-78
2024/04/15 17:13:24;;;;;;;0.20;0.20;;;8.10;82.80;;;;;;4959344;28;20051;-78
2024/04/15 17:15:50;;;;;;;1.20;0.38;;;8.10;82.20;;;;;;4943267;28;20050;-78
2024/04/15 17:18:16;;;;;;;1.00;0.30;;;8.10;82.30;;;;;;4957583;28;20054;-78
2024/04/15 17:20:42;;;;;;;0.77;0.40;;;8.10;82.30;;;;;;4956497;28;20035;-78
2024/04/15 17:23:08;;;;;;;1.20;0.20;;;8.10;82.10;;;;;;4959817;28;20035;-78
2024/04/15 17:25:34;;;;;;;1.55;0.40;;;8.20;82.00;;;;;;4957823;28;20062;-78
2024/04/15 17:28:00;;;;;;;0.20;0.20;;;8.20;81.80;;;;;;4956718;28;20043;-77
2024/04/15 17:30:25;;;;;;;0.90;0.32;;;8.30;81.70;;;;;;4956949;28;20047;-77
2024/04/15 17:32:51;;;;;;;0.40;0.40;;;8.30;81.50;;;;;;4956798;28;20051;-77
2024/04/15 17:35:20;;;;;;;1.08;0.50;;;8.40;81.10;;;;;;4956179;28;20039;-81
2024/04/15 17:38:09;;;;;;;0.93;0.45;;;8.40;80.70;;;;;;4939285;28;20125;-82
2024/04/15 17:40:35;;;;;;;0.40;0.40;;;8.40;80.60;;;;;;4929868;29;20532;-80
2024/04/15 17:43:02;;;;;;;0.20;0.20;;;8.30;80.60;;;;;;4916893;29;20131;-81
2024/04/15 17:45:30;;;;;;;0.30;0.30;;;8.20;80.60;;;;;;4932830;29;20142;-82
2024/04/15 17:47:59;;;;;;;0.35;0.20;;;8.20;80.80;;;;;;4931754;29;20097;-79
2024/04/15 17:50:26;;;;;;;0.30;0.30;;;7.90;80.80;;;;;;4932188;29;20157;-79
2024/04/15 17:52:52;;;;;;;0.50;0.20;;;8.00;81.00;;;;;;4932390;29;20128;-79
2024/04/15 17:55:45;;;;;;;0.30;0.30;;;7.90;81.10;;;;;;4916190;29;20047;-79
2024/04/15 17:58:25;;;;;;;0.35;0.30;;;7.90;81.20;;;;;;4916776;29;20048;-79
2024/04/15 18:00:50;;;;;;;0.20;0.20;;;7.90;81.20;;;;;;4931639;29;20036;-79
2024/04/15 18:03:18;;;;;;;0.30;0.30;;;7.80;81.20;;;;;;4916990;29;20172;-79
2024/04/15 18:05:51;;;;;;;0.22;0.20;;;7.80;81.30;;;;;;4947016;29;20421;-79
2024/04/15 18:08:16;;;;;;;0.22;0.22;;;7.80;81.30;;;;;;4912897;29;20062;-79
2024/04/15 18:10:42;;;;;;;0.32;0.32;;;7.70;81.40;;;;;;4946800;29;20125;-79
2024/04/15 18:13:08;;;;;;;0.28;0.20;;;7.70;81.40;;;;;;4933234;29;20518;-79
2024/04/15 18:15:34;;;;;;;0.20;0.20;;;7.70;81.40;;;;;;4935210;29;20036;-79
2024/04/15 18:18:00;;;;;;;1.08;0.20;;;7.70;81.40;;;;;;4934230;29;20040;-79
2024/04/15 18:20:26;;;;;;;0.68;0.10;;;7.70;81.30;;;;;;4918225;29;20032;-79
2024/04/15 18:23:23;;;;;;;0.20;0.20;;;7.70;81.30;;;;;;4919491;29;20060;-84
2024/04/15 18:25:49;;;;;;;0.68;0.20;;;7.60;81.30;;;;;;4840913;29;20049;-79
2024/04/15 18:28:15;;;;;;;0.20;0.20;;;7.60;81.20;;;;;;4841186;29;20042;-79
2024/04/15 18:30:48;;;;;;;0.40;0.30;;;7.60;81.20;;;;;;4819871;29;20038;-79
2024/04/15 18:33:13;;;;;;;0.77;0.32;;;7.60;81.20;;;;;;4803207;29;20122;-79
2024/04/15 18:35:39;;;;;;;1.08;0.43;;;7.60;81.30;;;;;;4805111;29;20176;-77
2024/04/15 18:38:15;;;;;;;1.65;0.40;;;7.70;81.30;;;;;;4790335;29;20086;-78
2024/04/15 18:40:41;;;;;;;0.45;0.28;;;7.50;81.20;;;;;;4787957;29;20035;-79
2024/04/15 18:43:10;;;;;;;0.38;0.35;;;7.60;81.20;;;;;;4789488;29;20057;-78
2024/04/15 18:45:44;;;;;;;1.52;0.40;;;7.50;81.10;;;;;;4769802;30;20109;-77
2024/04/15 18:48:13;;;;;;;1.17;0.20;;;7.50;81.00;;;;;;4753694;30;20108;-77
2024/04/15 18:50:39;;;;;;;0.10;0.10;;;7.50;81.00;;;;;;4753182;29;20180;-76
2024/04/15 18:53:16;;;;;;;0.25;0.20;;;7.60;81.00;;;;;;4753749;30;20122;-76
2024/04/15 18:55:41;;;;;;;0.30;0.30;;;7.40;80.80;;;;;;4741603;30;20055;-78
2024/04/15 18:58:08;;;;;;;0.22;0.10;;;7.40;80.80;;;;;;4769365;30;20043;-77
2024/04/15 19:00:34;;;;;;;0.20;0.10;;;7.40;80.90;;;;;;4784525;29;20054;-79
2024/04/15 19:02:59;;;;;;;0.22;0.20;;;7.40;81.00;;;;;;4856241;29;20053;-77
2024/04/15 19:05:25;;;;;;;0.10;0.10;;;7.40;81.00;;;;;;4859352;29;20124;-78
2024/04/15 19:07:51;;;;;;;0.20;0.20;;;7.40;81.10;;;;;;4843711;29;20055;-79
2024/04/15 19:14:18;;;;;;;0.20;0.20;;;7.30;81.10;;;;;;4878566;29;20107;-78
2024/04/15 19:17:27;;;;;;;0.10;0.10;;;7.20;81.00;;;;;;4895250;29;20106;-79
2024/04/15 19:20:00;;;;;;;0.88;0.10;;;7.20;81.20;;;;;;4854597;29;20061;-79
2024/04/15 19:23:00;;;;;;;0.98;0.10;;;7.20;81.10;;;;;;4852850;29;20535;-77
2024/04/15 19:26:00;;;;;;;0.30;0.20;;;7.20;81.10;;;;;;4800369;29;20069;-79
2024/04/15 19:28:26;;;;;;;0.28;0.20;;;7.20;81.00;;;;;;4780711;29;20070;-78
2024/04/15 19:31:03;;;;;;;0.43;0.30;;;7.20;81.00;;;;;;4768341;29;20047;-78
2024/04/15 19:33:42;;;;;;;0.20;0.20;;;7.10;81.10;;;;;;4769205;29;20450;-78
2024/04/15 19:43:15;;;;;;;0.17;0.15;;;6.70;81.90;;;;;;4724871;30;20129;-80
2024/04/15 19:49:18;;;;;;;0.43;0.30;;;6.70;82.40;;;;;;4708949;30;20064;-79
2024/04/15 19:55:27;;;;;;;0.13;0.13;;;6.50;82.60;;;;;;4748431;30;20056;-79
2024/04/15 19:58:30;;;;;;;0.10;0.10;;;6.40;82.50;;;;;;4746228;30;20056;-78
2024/04/15 20:01:53;;;;;;;0.28;0.10;;;6.40;82.80;;;;;;4767023;30;20047;-78
2024/04/15 20:07:51;;;;;;;0.35;0.20;;;6.40;82.90;;;;;;4645889;30;20054;-79
2024/04/15 20:10:28;;;;;;;0.20;0.20;;;6.40;82.80;;;;;;4646661;30;20602;-78
2024/04/15 20:12:54;;;;;;;0.20;0.20;;;6.30;82.80;;;;;;4677517;30;20399;-79
2024/04/15 20:15:24;;;;;;;0.25;0.20;;;6.20;82.80;;;;;;4652585;30;20050;-80
2024/04/15 20:18:08;;;;;;;0.57;0.25;;;6.30;83.00;;;;;;4662731;30;20064;-79
2024/04/15 20:21:02;;;;;;;0.15;0.13;;;6.30;82.90;;;;;;4733291;30;20048;-79
2024/04/15 20:34:55;;;;;;;0.10;0.10;;;6.20;83.40;;;;;;4658466;30;20079;-80